KEDE/EDE METAR and TAF weather

Enter ICAO airport designator
Station Type Date Time Source
KEDE METAR 2021/03/09 10:35 UTC NOAA

KEDE 091035Z AUTO 22004KT 10SM CLR 05/01 A3051 RMK AO2 T00520012


Station Type Date Time Source
KEDE Decoded METAR 2021/03/09 10:35 UTC NOAA

Edenton, Northeastern Regional Airport, NC, United States (KEDE) 36-01-40N 076-34-02W
Mar 09, 2021 - 05:35 AM EST / 2021.03.09 1035 UTC
Wind: from the SW (220 degrees) at 5 MPH (4 KT):0
Visibility: 10 mile(s):0
Sky conditions: clear
Temperature: 41.4 F (5.2 C)
Dew Point: 34.2 F (1.2 C)
Relative Humidity: 75%
Pressure (altimeter): 30.51 in. Hg (1033 hPa)
ob: KEDE 091035Z AUTO 22004KT 10SM CLR 05/01 A3051 RMK AO2 T00520012
cycle: 10

Station Type Date Time Source
KEDE TAF UTC NOAA

Error!

Example: see airport list